Terminal Aerodrome Forecast
Issued by NWS

Home | Current Version | Previous Version | Graphics & Text | Print | Product List | Glossary On
Versions: 1 2 3 4 5 6 7 8 9 10 11 12 13 14 15 16 17 18
842
FTUS43 KICT 151631 AAD
TAFRSL
TAF AMD
KRSL 151631Z 1517/1612 36018G26KT P6SM SCT120
      TEMPO 1517/1518 3SM BLSN
     FM151800 35020G30KT P6SM SCT150
     FM160100 34012KT P6SM SKC=

USA.gov is the U.S. government's official web portal to all federal, state and local government web resources and services.